createdAt,value
2018-11-21T00:01:05.745Z,3.22
2018-11-21T00:03:35.777Z,3.23
2018-11-21T00:06:06.665Z,3.21
2018-11-21T00:08:36.725Z,3.18
2018-11-21T00:11:06.866Z,3.20
2018-11-21T00:13:38.454Z,3.17
2018-11-21T00:16:09.200Z,3.12
2018-11-21T00:18:39.770Z,3.15
2018-11-21T00:21:10.426Z,3.16
2018-11-21T00:23:41.117Z,3.16
2018-11-21T00:26:11.620Z,3.17
2018-11-21T00:28:42.109Z,3.19
2018-11-21T00:31:12.918Z,3.19
2018-11-21T00:33:43.801Z,3.14
2018-11-21T00:36:14.671Z,3.20
2018-11-21T00:38:45.170Z,3.22
2018-11-21T00:41:15.819Z,3.24
2018-11-21T00:43:46.735Z,3.24
2018-11-21T00:46:16.833Z,3.25
2018-11-21T00:48:47.994Z,3.26
2018-11-21T00:51:18.421Z,3.25
2018-11-21T00:53:49.003Z,3.25
2018-11-21T00:56:19.404Z,3.22
2018-11-21T00:58:49.826Z,3.21
2018-11-21T01:01:20.375Z,3.16
2018-11-21T01:03:50.838Z,3.17
2018-11-21T01:06:20.888Z,3.17
2018-11-21T01:08:50.935Z,3.17
2018-11-21T01:11:22.095Z,3.19
2018-11-21T01:13:52.721Z,3.20
2018-11-21T01:16:23.025Z,3.23
2018-11-21T01:18:53.789Z,3.19
2018-11-21T01:21:23.940Z,3.19
2018-11-21T01:23:53.960Z,3.23
2018-11-21T01:26:25.123Z,3.26
2018-11-21T01:28:56.482Z,3.28
2018-11-21T01:31:27.069Z,3.25
2018-11-21T01:33:58.116Z,3.23
2018-11-21T01:36:28.370Z,3.23
2018-11-21T01:38:59.461Z,3.22
2018-11-21T01:41:29.849Z,3.25
2018-11-21T01:44:00.224Z,3.25
2018-11-21T01:46:31.165Z,3.28
2018-11-21T01:49:01.524Z,3.31
2018-11-21T01:51:32.710Z,3.31
2018-11-21T01:54:03.401Z,3.33
2018-11-21T01:56:34.048Z,3.34
2018-11-21T01:59:05.039Z,3.31
2018-11-21T02:01:35.394Z,3.31
2018-11-21T02:04:05.960Z,3.32
2018-11-21T02:06:36.327Z,3.33
2018-11-21T02:09:10.100Z,3.29
2018-11-21T02:11:40.276Z,3.33
2018-11-21T02:14:13.286Z,3.33
2018-11-21T02:16:44.576Z,3.37
2018-11-21T02:19:17.197Z,3.37
2018-11-21T02:21:48.307Z,3.36
2018-11-21T02:24:21.372Z,3.37
2018-11-21T02:26:52.270Z,3.36
2018-11-21T02:29:23.323Z,3.35
2018-11-21T02:31:53.663Z,3.35
2018-11-21T02:34:24.514Z,3.34
2018-11-21T02:36:54.550Z,3.32
2018-11-21T02:39:26.461Z,3.33
2018-11-21T02:41:57.349Z,3.32
2018-11-21T02:44:28.420Z,3.32
2018-11-21T02:47:00.672Z,3.32
2018-11-21T02:49:31.163Z,3.34
2018-11-21T02:52:01.673Z,3.32
2018-11-21T02:54:32.518Z,3.33
2018-11-21T02:57:20.657Z,3.33
2018-11-21T03:00:17.100Z,3.33
2018-11-21T03:02:49.405Z,3.34
2018-11-21T03:05:20.343Z,3.34
2018-11-21T03:07:52.554Z,3.34
2018-11-21T03:10:25.229Z,3.34
2018-11-21T03:12:57.820Z,3.32
2018-11-21T03:15:29.439Z,3.27
2018-11-21T03:18:00.690Z,3.29
2018-11-21T03:20:30.682Z,3.30
2018-11-21T03:23:03.525Z,3.32
2018-11-21T03:25:34.398Z,3.31
2018-11-21T03:28:04.530Z,3.31
2018-11-21T03:30:35.563Z,3.32
2018-11-21T03:33:07.875Z,3.33
2018-11-21T03:35:39.478Z,3.32
2018-11-21T03:38:10.555Z,3.30
2018-11-21T03:40:40.658Z,3.28
2018-11-21T03:43:12.516Z,3.31
2018-11-21T03:45:42.861Z,3.30
2018-11-21T03:48:15.125Z,3.30
2018-11-21T03:50:45.321Z,3.31
2018-11-21T03:53:15.645Z,3.30
2018-11-21T03:55:46.460Z,3.31
2018-11-21T03:58:16.724Z,3.28
2018-11-21T04:00:47.551Z,3.29
2018-11-21T04:03:17.701Z,3.29
2018-11-21T04:05:48.680Z,3.31
2018-11-21T04:08:19.670Z,3.30
2018-11-21T04:10:49.695Z,3.35
2018-11-21T04:13:20.880Z,3.31
2018-11-21T04:15:51.460Z,3.22
2018-11-21T04:18:21.771Z,3.26
2018-11-21T04:20:53.103Z,3.27
2018-11-21T04:23:23.640Z,3.15
2018-11-21T04:25:53.735Z,3.05
2018-11-21T04:28:24.765Z,3.00
2018-11-21T04:30:54.801Z,2.95
2018-11-21T04:33:25.904Z,2.97
2018-11-21T04:35:57.031Z,2.99
2018-11-21T04:38:27.565Z,2.97
2018-11-21T04:40:58.012Z,3.01
2018-11-21T04:43:28.528Z,3.05
2018-11-21T04:45:58.959Z,3.09
2018-11-21T04:48:28.970Z,3.12
2018-11-21T04:51:00.038Z,3.07
2018-11-21T04:53:30.170Z,3.12
2018-11-21T04:56:01.092Z,3.16
2018-11-21T04:58:31.624Z,3.14
2018-11-21T05:01:02.157Z,3.25
2018-11-21T05:03:32.971Z,3.15
2018-11-21T05:06:03.589Z,3.18
2018-11-21T05:08:34.156Z,3.19
2018-11-21T05:11:04.657Z,3.30
2018-11-21T05:13:34.979Z,3.24
2018-11-21T05:16:06.988Z,3.22
2018-11-21T05:18:39.133Z,3.25
2018-11-21T05:21:10.483Z,3.21
2018-11-21T05:23:41.266Z,3.22
2018-11-21T05:26:12.225Z,3.22
2018-11-21T05:28:44.234Z,3.15
2018-11-21T05:31:17.539Z,3.15
2018-11-21T05:33:47.765Z,3.17
2018-11-21T05:36:20.268Z,3.15
2018-11-21T05:38:51.248Z,3.14
2018-11-21T05:41:22.205Z,3.21
2018-11-21T05:43:53.236Z,3.21
2018-11-21T05:46:24.175Z,3.27
2018-11-21T05:48:54.204Z,3.29
2018-11-21T05:51:25.225Z,3.30
2018-11-21T05:53:55.263Z,3.33
2018-11-21T05:56:26.189Z,3.40
2018-11-21T05:58:58.358Z,3.37
2018-11-21T06:01:30.121Z,3.38
2018-11-21T06:04:01.173Z,3.37
2018-11-21T06:06:31.282Z,3.40
2018-11-21T06:09:07.236Z,3.38
2018-11-21T06:11:39.405Z,3.40
2018-11-21T06:14:12.366Z,3.40
2018-11-21T06:16:43.313Z,3.46
2018-11-21T06:19:13.335Z,3.48
2018-11-21T06:21:44.282Z,3.50
2018-11-21T06:24:15.339Z,3.51
2018-11-21T06:26:53.959Z,3.49
2018-11-21T06:29:25.510Z,3.53
2018-11-21T06:31:56.145Z,3.52
2018-11-21T06:34:29.137Z,3.52
2018-11-21T06:36:57.528Z,3.54
2018-11-21T06:39:28.337Z,3.57
2018-11-21T06:41:58.369Z,3.57
2018-11-21T06:44:29.594Z,3.61
2018-11-21T06:47:00.342Z,3.63
2018-11-21T06:49:31.122Z,3.62
2018-11-21T06:52:01.568Z,3.69
2018-11-21T06:54:32.432Z,3.69
2018-11-21T06:57:03.495Z,3.75
2018-11-21T06:59:33.685Z,3.76
2018-11-21T07:02:04.472Z,3.73
2018-11-21T07:04:34.536Z,3.72
2018-11-21T07:07:05.422Z,3.76
2018-11-21T07:09:35.989Z,3.73
2018-11-21T07:12:06.279Z,3.75
2018-11-21T07:14:36.733Z,3.73
2018-11-21T07:17:07.385Z,3.76
2018-11-21T07:19:37.464Z,3.82
2018-11-21T07:22:08.540Z,3.79
2018-11-21T07:24:39.295Z,3.82
2018-11-21T07:27:09.845Z,3.81
2018-11-21T07:29:40.433Z,3.85
2018-11-21T07:32:10.497Z,3.82
2018-11-21T07:34:41.602Z,3.85
2018-11-21T07:37:12.286Z,3.88
2018-11-21T07:39:42.743Z,3.88
2018-11-21T07:42:13.685Z,3.84
2018-11-21T07:44:44.488Z,3.85
2018-11-21T07:47:14.645Z,3.84
2018-11-21T07:49:45.745Z,3.85
2018-11-21T07:52:16.509Z,3.88
2018-11-21T07:54:46.636Z,3.91
2018-11-21T07:57:41.470Z,3.93
2018-11-21T08:01:02.012Z,3.90
2018-11-21T08:03:41.727Z,3.91
2018-11-21T08:06:33.965Z,3.91
2018-11-21T08:09:26.796Z,3.95
2018-11-21T08:12:19.596Z,3.97
2018-11-21T08:15:08.167Z,4.02
2018-11-21T08:17:55.927Z,3.99
2018-11-21T08:21:04.114Z,3.98
2018-11-21T08:23:55.702Z,3.95
2018-11-21T08:26:42.944Z,3.95
2018-11-21T08:29:14.046Z,3.95
2018-11-21T08:31:46.813Z,3.92
2018-11-21T08:34:17.875Z,3.92
2018-11-21T08:36:47.906Z,3.90
2018-11-21T08:39:19.087Z,3.93
2018-11-21T08:41:49.906Z,3.94
2018-11-21T08:44:19.997Z,3.92
2018-11-21T08:46:51.057Z,3.93
2018-11-21T08:49:23.942Z,3.94
2018-11-21T08:51:54.630Z,3.93
2018-11-21T08:54:26.114Z,3.94
2018-11-21T08:56:58.023Z,3.98
2018-11-21T08:59:29.981Z,3.96
2018-11-21T09:02:00.943Z,4.02
2018-11-21T09:04:32.110Z,4.02
2018-11-21T09:07:04.113Z,4.03
2018-11-21T09:09:36.167Z,4.09
2018-11-21T09:12:08.776Z,4.05
2018-11-21T09:14:37.927Z,4.12
2018-11-21T09:17:08.870Z,4.10
2018-11-21T09:19:39.017Z,4.12
2018-11-21T09:22:10.166Z,4.16
2018-11-21T09:24:40.648Z,4.20
2018-11-21T09:27:11.574Z,4.16
2018-11-21T09:29:41.698Z,3.96
2018-11-21T09:32:12.143Z,4.23
2018-11-21T09:34:42.830Z,4.24
2018-11-21T09:37:13.176Z,4.24
2018-11-21T09:39:44.128Z,4.21
2018-11-21T09:42:14.585Z,4.25
2018-11-21T09:44:45.184Z,4.22
2018-11-21T09:47:15.247Z,4.21
2018-11-21T09:49:46.159Z,4.22
2018-11-21T09:52:16.233Z,4.27
2018-11-21T09:54:47.190Z,4.27
2018-11-21T09:57:19.847Z,4.30
2018-11-21T09:59:52.373Z,4.37
2018-11-21T10:02:59.447Z,4.31
2018-11-21T10:05:32.253Z,4.34
2018-11-21T10:08:18.162Z,4.32
2018-11-21T10:10:48.226Z,4.34
2018-11-21T10:13:19.237Z,4.30
2018-11-21T10:15:50.604Z,4.29
2018-11-21T10:18:21.262Z,4.33
2018-11-21T10:20:51.325Z,4.26
2018-11-21T10:23:22.315Z,4.34
2018-11-21T10:25:53.420Z,4.32
2018-11-21T10:28:24.294Z,4.34
2018-11-21T10:30:54.351Z,4.33
2018-11-21T10:33:25.328Z,4.32
2018-11-21T10:35:55.419Z,4.35
2018-11-21T10:38:26.395Z,4.33
2018-11-21T10:40:58.755Z,4.36
2018-11-21T10:43:30.922Z,4.40
2018-11-21T10:46:00.982Z,4.45
2018-11-21T10:48:31.352Z,4.39
2018-11-21T10:51:01.766Z,4.40
2018-11-21T10:53:32.517Z,4.44
2018-11-21T10:56:03.495Z,4.44
2018-11-21T10:58:33.630Z,4.40
2018-11-21T11:01:21.523Z,4.40
2018-11-21T11:03:55.024Z,4.37
2018-11-21T11:06:44.597Z,4.42
2018-11-21T11:09:39.416Z,4.45
2018-11-21T11:12:21.387Z,4.44
2018-11-21T11:15:14.311Z,4.45
2018-11-21T11:18:12.747Z,4.44
2018-11-21T11:21:02.155Z,4.50
2018-11-21T11:24:07.919Z,4.48
2018-11-21T11:27:07.400Z,4.51
2018-11-21T11:29:56.613Z,4.48
2018-11-21T11:32:48.551Z,4.53
2018-11-21T11:35:44.691Z,4.50
2018-11-21T11:38:51.799Z,4.49
2018-11-21T11:41:52.679Z,4.49
2018-11-21T11:44:41.660Z,4.49
2018-11-21T11:47:30.211Z,4.45
2018-11-21T11:50:19.871Z,4.26
2018-11-21T11:53:08.404Z,4.44
2018-11-21T11:55:56.730Z,4.42
2018-11-21T11:58:49.956Z,4.43
2018-11-21T12:01:44.836Z,4.43
2018-11-21T12:04:34.291Z,4.48
2018-11-21T12:07:35.490Z,4.43
2018-11-21T12:10:24.148Z,4.43
2018-11-21T12:13:20.219Z,4.37
2018-11-21T12:16:11.914Z,4.43
2018-11-21T12:19:09.955Z,4.47
2018-11-21T12:22:04.509Z,4.43
2018-11-21T12:24:44.188Z,4.38
2018-11-21T12:27:27.048Z,4.36
2018-11-21T12:30:31.109Z,4.38
2018-11-21T12:33:25.571Z,4.28
2018-11-21T12:36:13.119Z,4.34
2018-11-21T12:39:11.897Z,4.31
2018-11-21T12:42:04.495Z,4.31
2018-11-21T12:45:11.045Z,4.30
2018-11-21T12:47:53.603Z,4.33
2018-11-21T12:50:58.300Z,4.32
2018-11-21T12:53:48.929Z,4.31
2018-11-21T12:56:31.155Z,4.29
2018-11-21T12:59:20.928Z,4.28
2018-11-21T13:02:08.600Z,4.28
2018-11-21T13:04:57.079Z,4.24
2018-11-21T13:07:45.509Z,4.22
2018-11-21T13:10:38.101Z,4.32
2018-11-21T13:13:26.393Z,4.26
2018-11-21T13:16:13.818Z,4.27
2018-11-21T13:19:10.009Z,4.25
2018-11-21T13:21:57.970Z,4.23
2018-11-21T13:24:48.416Z,4.28
2018-11-21T13:27:37.958Z,4.23
2018-11-21T13:30:37.058Z,4.24
2018-11-21T13:33:25.035Z,4.24
2018-11-21T13:36:13.032Z,4.23
2018-11-21T13:39:07.433Z,4.23
2018-11-21T13:41:57.988Z,4.21
2018-11-21T13:44:41.115Z,4.21
2018-11-21T13:47:30.296Z,4.18
2018-11-21T13:50:17.517Z,4.16
2018-11-21T13:53:17.660Z,4.18
2018-11-21T13:55:50.058Z,4.17
2018-11-21T13:58:20.399Z,4.19
2018-11-21T14:00:51.336Z,4.21
2018-11-21T14:03:22.176Z,4.16
2018-11-21T14:05:52.349Z,4.15
2018-11-21T14:08:23.398Z,4.19
2018-11-21T14:10:54.001Z,4.20
2018-11-21T14:13:24.467Z,4.15
2018-11-21T14:15:55.124Z,4.18
2018-11-21T14:18:25.445Z,4.14
2018-11-21T14:20:55.534Z,4.16
2018-11-21T14:23:26.381Z,4.16
2018-11-21T14:25:57.285Z,4.20
2018-11-21T14:28:27.338Z,4.19
2018-11-21T14:30:58.478Z,4.18
2018-11-21T14:33:29.396Z,4.14
2018-11-21T14:36:00.021Z,4.14
2018-11-21T14:38:30.481Z,4.13
2018-11-21T14:41:01.339Z,4.11
2018-11-21T14:43:31.407Z,4.11
2018-11-21T14:46:01.585Z,4.12
2018-11-21T14:48:33.501Z,4.14
2018-11-21T14:51:04.623Z,4.13
2018-11-21T14:53:34.607Z,4.12
2018-11-21T14:56:06.037Z,4.10
2018-11-21T14:58:36.345Z,4.10
2018-11-21T15:01:07.172Z,4.13
2018-11-21T15:03:37.749Z,4.13
2018-11-21T15:06:08.847Z,4.11
2018-11-21T15:08:39.495Z,4.12
2018-11-21T15:11:10.190Z,4.14
2018-11-21T15:13:40.277Z,4.10
2018-11-21T15:16:10.892Z,4.14
2018-11-21T15:18:41.519Z,4.13
2018-11-21T15:21:16.456Z,4.11
2018-11-21T15:23:42.683Z,4.13
2018-11-21T15:26:13.327Z,4.14
2018-11-21T15:28:43.862Z,4.13
2018-11-21T15:31:14.437Z,4.15
2018-11-21T15:33:44.673Z,4.13
2018-11-21T15:36:15.575Z,4.13
2018-11-21T15:38:45.663Z,4.11
2018-11-21T15:41:16.784Z,4.13
2018-11-21T15:43:47.446Z,4.13
2018-11-21T15:46:17.757Z,4.14
2018-11-21T15:48:48.770Z,4.17
2018-11-21T15:51:19.452Z,4.15
2018-11-21T15:53:49.835Z,4.16
2018-11-21T15:56:19.890Z,4.15
2018-11-21T15:58:50.663Z,4.14
2018-11-21T16:01:21.714Z,4.12
2018-11-21T16:03:52.822Z,4.13
2018-11-21T16:06:23.945Z,4.10
2018-11-21T16:08:54.633Z,4.10
2018-11-21T16:11:24.935Z,4.12
2018-11-21T16:13:55.312Z,4.16
2018-11-21T16:16:25.408Z,4.13
2018-11-21T16:18:55.469Z,4.17
2018-11-21T16:21:27.867Z,4.12
2018-11-21T16:23:59.032Z,4.11
2018-11-21T16:26:29.574Z,4.13
2018-11-21T16:29:00.014Z,4.10
2018-11-21T16:31:30.514Z,4.12
2018-11-21T16:34:01.927Z,4.12
2018-11-21T16:36:31.971Z,4.11
2018-11-21T16:39:02.274Z,4.09
2018-11-21T16:41:32.902Z,4.06
2018-11-21T16:44:03.593Z,4.11
2018-11-21T16:46:34.076Z,4.07
2018-11-21T16:49:05.091Z,4.07
2018-11-21T16:51:35.342Z,4.11
2018-11-21T16:54:06.071Z,4.10
2018-11-21T16:56:36.591Z,4.08
2018-11-21T16:59:07.102Z,4.05
2018-11-21T17:01:38.357Z,4.05
2018-11-21T17:04:08.646Z,4.03
2018-11-21T17:06:39.382Z,4.07
2018-11-21T17:09:11.917Z,4.02
2018-11-21T17:11:44.239Z,4.01
2018-11-21T17:14:17.099Z,3.99
2018-11-21T17:16:48.083Z,4.02
2018-11-21T17:19:20.849Z,3.95
2018-11-21T17:21:53.159Z,3.94
2018-11-21T17:24:25.171Z,3.97
2018-11-21T17:26:55.793Z,3.98
2018-11-21T17:29:28.379Z,3.97
2018-11-21T17:31:59.344Z,3.95
2018-11-21T17:34:31.391Z,3.99
2018-11-21T17:37:02.352Z,3.99
2018-11-21T17:39:33.314Z,3.99
2018-11-21T17:42:04.492Z,3.97
2018-11-21T17:44:34.550Z,4.00
2018-11-21T17:47:05.428Z,3.95
2018-11-21T17:49:35.650Z,3.97
2018-11-21T17:52:06.309Z,3.99
2018-11-21T17:54:36.536Z,3.95
2018-11-21T17:57:07.468Z,3.95
2018-11-21T17:59:37.989Z,3.95
2018-11-21T18:02:08.251Z,3.92
2018-11-21T18:04:39.196Z,3.93
2018-11-21T18:07:09.946Z,3.92
2018-11-21T18:09:40.294Z,3.93
2018-11-21T18:12:10.389Z,3.92
2018-11-21T18:14:41.380Z,3.96
2018-11-21T18:17:12.259Z,3.94
2018-11-21T18:19:42.357Z,3.97
2018-11-21T18:22:13.584Z,3.98
2018-11-21T18:24:44.523Z,3.96
2018-11-21T18:27:15.127Z,3.93
2018-11-21T18:29:45.548Z,3.95
2018-11-21T18:32:16.486Z,3.93
2018-11-21T18:34:47.179Z,3.92
2018-11-21T18:37:17.613Z,3.92
2018-11-21T18:39:48.379Z,3.88
2018-11-21T18:42:19.405Z,3.90
2018-11-21T18:44:49.583Z,3.91
2018-11-21T18:47:20.452Z,4.00
2018-11-21T18:49:50.694Z,3.94
2018-11-21T18:52:21.391Z,3.92
2018-11-21T18:54:51.920Z,3.90
2018-11-21T18:58:19.461Z,3.93
2018-11-21T19:00:52.450Z,3.95
2018-11-21T19:03:23.711Z,3.97
2018-11-21T19:05:54.785Z,3.93
2018-11-21T19:08:25.176Z,3.93
2018-11-21T19:10:55.683Z,3.92
2018-11-21T19:13:27.307Z,3.94
2018-11-21T19:16:02.264Z,3.96
2018-11-21T19:18:33.889Z,3.92
2018-11-21T19:21:06.206Z,3.96
2018-11-21T19:23:37.797Z,3.93
2018-11-21T19:26:08.661Z,3.91
2018-11-21T19:28:39.732Z,3.91
2018-11-21T19:31:13.230Z,3.94
2018-11-21T19:33:43.735Z,3.92
2018-11-21T19:36:14.877Z,3.91
2018-11-21T19:38:45.891Z,3.95
2018-11-21T19:41:18.723Z,3.92
2018-11-21T19:43:49.743Z,3.93
2018-11-21T19:46:20.560Z,3.91
2018-11-21T19:48:50.751Z,3.91
2018-11-21T19:51:21.854Z,3.94
2018-11-21T19:53:52.687Z,3.94
2018-11-21T19:56:22.788Z,3.94
2018-11-21T19:58:53.818Z,3.92
2018-11-21T20:01:24.084Z,3.93
2018-11-21T20:03:54.973Z,3.93
2018-11-21T20:06:25.680Z,3.91
2018-11-21T20:08:55.664Z,3.91
2018-11-21T20:11:26.713Z,3.92
2018-11-21T20:13:57.410Z,3.95
2018-11-21T20:16:27.910Z,3.94
2018-11-21T20:18:58.665Z,3.93
2018-11-21T20:21:28.955Z,3.93
2018-11-21T20:23:59.056Z,3.92
2018-11-21T20:26:29.957Z,3.96
2018-11-21T20:29:01.315Z,3.94
2018-11-21T20:31:31.837Z,3.91
2018-11-21T20:34:03.044Z,3.91
2018-11-21T20:36:33.329Z,3.92
2018-11-21T20:39:06.960Z,3.91
2018-11-21T20:41:38.073Z,3.90
2018-11-21T20:44:09.019Z,3.90
2018-11-21T20:46:39.070Z,3.91
2018-11-21T20:49:11.528Z,3.94
2018-11-21T20:51:41.007Z,3.97
2018-11-21T20:54:12.129Z,3.93
2018-11-21T20:56:44.979Z,3.95
2018-11-21T20:59:16.111Z,4.02
2018-11-21T21:01:46.131Z,3.97
2018-11-21T21:04:17.232Z,3.96
2018-11-21T21:06:50.094Z,3.99
2018-11-21T21:09:21.089Z,3.95
2018-11-21T21:11:52.034Z,3.95
2018-11-21T21:14:22.105Z,3.93
2018-11-21T21:16:53.163Z,3.90
2018-11-21T21:19:24.206Z,3.90
2018-11-21T21:21:55.763Z,3.90
2018-11-21T21:24:28.112Z,3.92
2018-11-21T21:26:59.122Z,3.91
2018-11-21T21:29:29.142Z,3.88
2018-11-21T21:32:02.092Z,3.86
2018-11-21T21:34:33.201Z,3.89
2018-11-21T21:37:04.355Z,3.99
2018-11-21T21:39:35.008Z,4.03
2018-11-21T21:42:05.320Z,3.91
2018-11-21T21:44:36.143Z,3.90
2018-11-21T21:47:07.258Z,3.94
2018-11-21T21:49:37.987Z,3.88
2018-11-21T21:52:08.235Z,3.88
2018-11-21T21:54:39.481Z,3.82
2018-11-21T21:57:09.933Z,3.91
2018-11-21T21:59:40.981Z,3.80
2018-11-21T22:02:11.322Z,3.77
2018-11-21T22:04:42.326Z,3.80
2018-11-21T22:07:13.383Z,3.74
2018-11-21T22:09:43.833Z,3.77
2018-11-21T22:12:14.494Z,3.77
2018-11-21T22:14:44.962Z,3.74
2018-11-21T22:17:15.449Z,3.76
2018-11-21T22:19:46.209Z,3.84
2018-11-21T22:22:16.293Z,3.79
2018-11-21T22:24:47.128Z,3.81
2018-11-21T22:27:17.400Z,3.72
2018-11-21T22:29:48.320Z,3.76
2018-11-21T22:32:19.244Z,3.80
2018-11-21T22:34:49.397Z,3.73
2018-11-21T22:37:20.356Z,3.69
2018-11-21T22:39:50.448Z,3.80
2018-11-21T22:42:21.491Z,3.74
2018-11-21T22:44:52.235Z,3.71
2018-11-21T22:47:22.562Z,3.72
2018-11-21T22:49:53.538Z,3.70
2018-11-21T22:52:24.551Z,3.70
2018-11-21T22:54:55.270Z,3.72
2018-11-21T22:57:26.333Z,3.74
2018-11-21T22:59:55.969Z,3.74
2018-11-21T23:02:27.472Z,3.68
2018-11-21T23:04:58.632Z,3.69
2018-11-21T23:07:29.113Z,3.76
2018-11-21T23:09:59.439Z,3.68
2018-11-21T23:12:30.512Z,3.66
2018-11-21T23:15:00.992Z,3.67
2018-11-21T23:17:31.567Z,3.64
2018-11-21T23:20:02.459Z,3.69
2018-11-21T23:22:32.735Z,3.73
2018-11-21T23:25:03.139Z,3.70
2018-11-21T23:27:33.707Z,3.67
2018-11-21T23:30:04.971Z,3.70
2018-11-21T23:32:34.972Z,3.60
2018-11-21T23:35:06.048Z,3.61
2018-11-21T23:37:36.172Z,3.60
2018-11-21T23:40:08.341Z,3.55
2018-11-21T23:42:40.984Z,3.57
2018-11-21T23:45:14.925Z,3.62
2018-11-21T23:47:46.141Z,3.52
2018-11-21T23:50:18.725Z,3.52
2018-11-21T23:52:48.819Z,3.50
